Time;durP1;ratioP1;P1;durP2;ratioP2;P2;SDS_P1;SDS_P2;PMS_P1;PMS_P2;Temp;Humidity;BMP_temperature;BMP_pressure;BME280_temperature;BME280_humidity;BME280_pressure;Samples;Min_cycle;Max_cycle;Signal;HPM_P1;HPM_P2
2024/02/02 00:00:08;;;;;;;31.67;13.15;;;0.70;99.90;;;;;;4993341;28;20030;-73
2024/02/02 00:02:37;;;;;;;25.50;11.65;;;0.70;99.90;;;;;;4995149;28;20030;-73
2024/02/02 00:05:06;;;;;;;23.30;10.10;;;0.70;99.90;;;;;;4986982;28;20109;-74
2024/02/02 00:07:32;;;;;;;18.83;10.75;;;0.70;99.90;;;;;;4994895;28;20022;-73
2024/02/02 00:09:59;;;;;;;22.85;10.10;;;0.70;99.90;;;;;;4994770;28;20046;-74
2024/02/02 00:12:25;;;;;;;15.90;7.90;;;0.60;99.90;;;;;;5002827;28;20026;-72
2024/02/02 00:14:50;;;;;;;12.95;6.72;;;0.60;99.90;;;;;;4992753;28;20022;-73
2024/02/02 00:17:18;;;;;;;13.10;5.15;;;0.60;99.90;;;;;;5010077;28;20057;-73
2024/02/02 00:19:44;;;;;;;10.60;5.25;;;0.60;99.90;;;;;;5008340;28;20086;-73
2024/02/02 00:22:10;;;;;;;8.65;5.45;;;0.60;99.90;;;;;;4986589;28;20034;-74
2024/02/02 00:24:35;;;;;;;14.20;6.15;;;0.50;99.90;;;;;;4997335;28;20030;-75
2024/02/02 00:27:02;;;;;;;11.48;5.93;;;0.50;99.90;;;;;;4997048;28;20075;-73
2024/02/02 00:29:28;;;;;;;7.45;4.55;;;0.60;99.90;;;;;;4980048;28;20116;-74
2024/02/02 00:31:53;;;;;;;9.38;4.50;;;0.60;99.90;;;;;;4995144;28;20037;-74
2024/02/02 00:34:19;;;;;;;6.68;3.80;;;0.60;99.90;;;;;;4992425;28;20023;-74
2024/02/02 00:36:45;;;;;;;7.60;4.85;;;0.50;99.90;;;;;;4992120;28;20022;-74
2024/02/02 00:39:10;;;;;;;6.63;4.03;;;0.60;99.90;;;;;;4992316;28;20026;-73
2024/02/02 00:41:36;;;;;;;9.00;4.47;;;0.60;99.90;;;;;;4975909;28;20030;-73
2024/02/02 00:44:03;;;;;;;12.65;4.55;;;0.60;99.90;;;;;;4984299;28;20026;-73
2024/02/02 00:46:29;;;;;;;6.75;3.78;;;0.50;99.90;;;;;;4993571;28;20037;-73
2024/02/02 00:48:55;;;;;;;7.45;4.53;;;0.50;99.90;;;;;;4993426;28;20015;-73
2024/02/02 00:51:20;;;;;;;5.82;3.53;;;0.40;99.90;;;;;;4991998;28;20022;-73
2024/02/02 00:53:46;;;;;;;8.20;3.90;;;0.40;99.90;;;;;;4993111;28;20114;-73
2024/02/02 00:56:12;;;;;;;6.95;4.07;;;0.40;99.90;;;;;;4993056;28;20030;-73
2024/02/02 00:58:37;;;;;;;5.47;4.40;;;0.40;99.90;;;;;;4993053;28;20358;-73
2024/02/02 01:01:03;;;;;;;7.40;4.57;;;0.40;99.90;;;;;;4992835;28;20049;-74
2024/02/02 01:03:29;;;;;;;5.28;3.80;;;0.40;99.90;;;;;;4991914;28;20432;-74
2024/02/02 01:05:54;;;;;;;8.68;4.20;;;0.40;99.90;;;;;;4991900;28;20030;-74
2024/02/02 01:08:20;;;;;;;6.90;4.15;;;0.40;99.90;;;;;;4991475;28;20117;-73
2024/02/02 01:10:46;;;;;;;5.28;3.60;;;0.40;99.90;;;;;;4992729;28;20026;-74
2024/02/02 01:13:12;;;;;;;8.93;4.38;;;0.40;99.90;;;;;;4991634;28;20379;-74
2024/02/02 01:15:37;;;;;;;6.30;3.38;;;0.40;99.90;;;;;;4992998;28;20022;-74
2024/02/02 01:18:07;;;;;;;7.50;4.00;;;0.40;99.90;;;;;;4992861;28;20071;-74
2024/02/02 01:20:34;;;;;;;9.07;4.68;;;0.40;99.90;;;;;;4975107;28;20073;-73
2024/02/02 01:22:59;;;;;;;6.80;4.28;;;0.50;99.90;;;;;;4992604;28;20485;-73
2024/02/02 01:25:29;;;;;;;9.48;5.43;;;0.50;99.90;;;;;;4992604;28;20175;-74
2024/02/02 01:27:55;;;;;;;10.82;5.03;;;0.50;99.90;;;;;;4991326;28;20035;-73
2024/02/02 01:30:23;;;;;;;12.27;4.65;;;0.50;99.90;;;;;;4992279;28;20405;-73
2024/02/02 01:32:49;;;;;;;10.30;5.57;;;0.60;99.90;;;;;;4992617;28;20037;-73
2024/02/02 01:35:17;;;;;;;10.23;5.43;;;0.60;99.90;;;;;;4992698;28;20077;-73
2024/02/02 01:37:45;;;;;;;11.60;5.32;;;0.50;99.90;;;;;;4992397;28;20519;-74
2024/02/02 01:40:14;;;;;;;9.10;5.75;;;0.50;99.90;;;;;;4992252;28;20508;-74
2024/02/02 01:42:40;;;;;;;11.43;6.30;;;0.50;99.90;;;;;;4974861;28;20031;-74
2024/02/02 01:45:06;;;;;;;13.55;5.90;;;0.60;99.90;;;;;;4974985;28;20023;-74
2024/02/02 01:47:32;;;;;;;10.18;5.55;;;0.50;99.90;;;;;;4991380;28;20125;-74
2024/02/02 01:49:58;;;;;;;11.15;6.50;;;0.50;99.90;;;;;;4994496;28;20154;-74
2024/02/02 01:52:24;;;;;;;11.32;6.45;;;0.50;99.90;;;;;;4979107;28;20027;-73
2024/02/02 01:54:50;;;;;;;11.82;6.32;;;0.40;99.90;;;;;;4995240;28;20026;-73
2024/02/02 01:57:15;;;;;;;12.55;6.05;;;0.50;99.90;;;;;;4996591;28;20022;-74
2024/02/02 01:59:41;;;;;;;11.82;5.82;;;0.50;99.90;;;;;;4978639;28;20105;-74
2024/02/02 02:02:07;;;;;;;11.32;5.72;;;0.40;99.90;;;;;;4995177;28;20037;-74
2024/02/02 02:04:33;;;;;;;10.27;5.78;;;0.40;99.90;;;;;;4978841;28;20081;-74
2024/02/02 02:06:59;;;;;;;10.70;5.20;;;0.40;99.90;;;;;;4996336;28;20026;-74
2024/02/02 02:09:25;;;;;;;12.00;6.38;;;0.30;99.90;;;;;;4978681;28;20034;-74
2024/02/02 02:11:51;;;;;;;11.55;5.97;;;0.30;99.90;;;;;;4978922;28;20485;-74
2024/02/02 02:14:17;;;;;;;11.90;6.47;;;0.30;99.90;;;;;;4978926;28;20026;-74
2024/02/02 02:16:44;;;;;;;13.25;7.15;;;0.30;99.90;;;;;;4996228;28;20029;-74
2024/02/02 02:19:14;;;;;;;9.23;6.05;;;0.20;99.90;;;;;;4978219;28;20062;-74
2024/02/02 02:21:40;;;;;;;10.90;6.07;;;0.20;99.90;;;;;;4994860;28;20029;-74
2024/02/02 02:24:05;;;;;;;16.73;6.72;;;0.40;99.90;;;;;;4996003;28;20023;-74
2024/02/02 02:26:32;;;;;;;13.95;7.20;;;0.30;99.90;;;;;;4994857;28;20038;-74
2024/02/02 02:28:58;;;;;;;14.93;7.10;;;0.30;99.90;;;;;;4994654;28;20505;-74
2024/02/02 02:31:24;;;;;;;10.38;6.22;;;0.30;99.90;;;;;;4994455;28;20125;-74
2024/02/02 02:33:50;;;;;;;10.52;5.70;;;0.30;99.90;;;;;;4978358;28;20408;-73
2024/02/02 02:36:15;;;;;;;12.85;6.45;;;0.30;99.90;;;;;;4995922;28;20055;-74
2024/02/02 02:38:43;;;;;;;12.75;6.22;;;0.40;99.90;;;;;;4995687;28;20058;-74
2024/02/02 02:41:09;;;;;;;9.85;5.85;;;0.40;99.90;;;;;;4978103;28;20041;-73
2024/02/02 02:43:35;;;;;;;25.95;10.75;;;0.40;99.90;;;;;;4994685;28;20023;-73
2024/02/02 02:46:00;;;;;;;24.73;11.07;;;0.50;99.90;;;;;;5001237;28;20030;-72
2024/02/02 02:48:26;;;;;;;37.90;19.98;;;0.60;99.90;;;;;;5013167;28;20033;-73
2024/02/02 02:50:52;;;;;;;19.35;11.18;;;0.60;99.90;;;;;;5013575;28;20044;-73
2024/02/02 02:53:18;;;;;;;16.05;8.02;;;0.70;99.90;;;;;;5010898;28;20090;-73
2024/02/02 02:55:44;;;;;;;19.85;8.38;;;0.70;99.90;;;;;;5011341;28;20485;-73
2024/02/02 02:58:12;;;;;;;14.50;8.32;;;0.70;99.90;;;;;;5004044;28;20026;-74
2024/02/02 03:00:37;;;;;;;13.98;6.88;;;0.70;99.90;;;;;;4997778;28;20014;-73
2024/02/02 03:03:03;;;;;;;9.60;5.75;;;0.80;99.90;;;;;;4981428;28;20078;-73
2024/02/02 03:05:30;;;;;;;9.32;5.28;;;0.80;99.90;;;;;;4998747;28;20041;-73
2024/02/02 03:07:56;;;;;;;9.63;6.07;;;0.80;99.90;;;;;;4995878;28;20026;-74
2024/02/02 03:10:25;;;;;;;13.48;6.22;;;0.80;99.90;;;;;;4994968;28;20039;-74
2024/02/02 03:12:54;;;;;;;14.23;6.57;;;0.80;99.90;;;;;;4993693;28;20058;-73
2024/02/02 03:15:20;;;;;;;12.52;6.43;;;0.70;99.90;;;;;;4994937;28;20019;-74
2024/02/02 03:17:48;;;;;;;13.00;5.68;;;0.70;99.90;;;;;;4995164;28;20058;-74
2024/02/02 03:20:13;;;;;;;13.60;7.20;;;0.70;99.90;;;;;;4994655;28;20033;-74
2024/02/02 03:22:39;;;;;;;12.05;6.47;;;0.60;99.90;;;;;;4994922;28;20038;-73
2024/02/02 03:25:08;;;;;;;12.88;7.47;;;0.60;99.90;;;;;;4994920;28;20077;-73
2024/02/02 03:27:35;;;;;;;8.98;6.07;;;0.50;99.90;;;;;;4994781;28;20037;-74
2024/02/02 03:30:01;;;;;;;12.25;6.60;;;0.40;99.90;;;;;;5015049;23;20041;-75
2024/02/02 03:32:26;;;;;;;12.20;5.85;;;0.40;99.90;;;;;;4997132;28;20034;-74
2024/02/02 03:34:52;;;;;;;10.77;6.30;;;0.20;99.90;;;;;;4997315;28;20032;-73
2024/02/02 03:37:21;;;;;;;13.48;5.95;;;0.20;99.90;;;;;;4997216;28;20022;-73
2024/02/02 03:39:47;;;;;;;10.32;6.22;;;0.10;99.90;;;;;;5014427;28;20121;-75
2024/02/02 03:42:13;;;;;;;8.80;5.18;;;0.10;99.90;;;;;;5014747;28;20439;-74
2024/02/02 03:44:39;;;;;;;10.48;6.00;;;0.00;99.90;;;;;;4997142;28;20030;-74
2024/02/02 03:47:04;;;;;;;11.82;5.68;;;-0.10;99.90;;;;;;4997022;28;20030;-73
2024/02/02 03:49:32;;;;;;;11.98;6.47;;;-0.10;99.90;;;;;;5014315;28;20096;-74
2024/02/02 03:52:00;;;;;;;12.98;7.30;;;-0.10;99.90;;;;;;5013936;28;20030;-74
2024/02/02 03:54:26;;;;;;;11.90;6.38;;;-0.20;99.90;;;;;;5013939;28;20102;-73
2024/02/02 03:56:52;;;;;;;11.02;5.45;;;-0.20;99.90;;;;;;4996288;28;20124;-74
2024/02/02 03:59:17;;;;;;;9.32;5.25;;;-0.30;99.90;;;;;;5013656;28;20022;-74
2024/02/02 04:01:43;;;;;;;11.18;4.88;;;-0.30;99.90;;;;;;5013907;28;20022;-75
2024/02/02 04:04:09;;;;;;;7.10;4.35;;;-0.40;99.90;;;;;;4996366;28;20073;-75
2024/02/02 04:06:35;;;;;;;10.88;5.95;;;-0.40;99.90;;;;;;5013727;28;20029;-74
2024/02/02 04:09:00;;;;;;;8.13;5.07;;;-0.50;99.90;;;;;;4995837;28;20033;-73
2024/02/02 04:11:26;;;;;;;12.48;5.80;;;-0.40;99.90;;;;;;4995890;28;20428;-75
2024/02/02 04:13:52;;;;;;;20.55;9.45;;;-0.40;99.90;;;;;;5013380;28;20026;-74
2024/02/02 04:16:17;;;;;;;19.23;8.75;;;-0.50;99.90;;;;;;4996243;28;20084;-74
2024/02/02 04:18:43;;;;;;;11.27;6.63;;;-0.50;99.90;;;;;;5013576;28;20492;-74
2024/02/02 04:21:09;;;;;;;14.70;5.68;;;-0.40;99.90;;;;;;5013268;28;20101;-74
2024/02/02 04:23:34;;;;;;;11.52;6.13;;;-0.50;99.90;;;;;;5013517;28;20058;-73
2024/02/02 04:26:00;;;;;;;7.38;5.10;;;-0.50;99.90;;;;;;5013307;28;20101;-73
2024/02/02 04:28:26;;;;;;;16.42;8.43;;;-0.50;99.90;;;;;;5013298;28;20026;-74
2024/02/02 04:30:51;;;;;;;18.75;8.35;;;-0.50;99.90;;;;;;5013078;28;20042;-74
2024/02/02 04:33:17;;;;;;;11.75;6.43;;;-0.50;99.90;;;;;;5013211;28;20022;-74
2024/02/02 04:35:42;;;;;;;9.07;5.03;;;-0.40;99.90;;;;;;4995371;28;20028;-74
2024/02/02 04:38:08;;;;;;;12.88;7.65;;;-0.40;99.90;;;;;;5012882;28;20034;-73
2024/02/02 04:40:34;;;;;;;20.45;8.60;;;-0.40;99.90;;;;;;5012114;28;20380;-75
2024/02/02 04:43:00;;;;;;;11.38;6.90;;;-0.40;99.90;;;;;;5011923;28;20022;-76
2024/02/02 04:45:25;;;;;;;21.60;9.93;;;0.40;99.90;;;;;;5013092;28;20022;-77
2024/02/02 04:47:51;;;;;;;16.25;7.93;;;0.30;99.90;;;;;;5013205;28;20061;-74
2024/02/02 04:50:17;;;;;;;12.10;7.35;;;0.10;99.90;;;;;;5014382;28;20030;-74
2024/02/02 04:52:43;;;;;;;10.43;6.28;;;0.00;99.90;;;;;;5011705;28;20030;-74
2024/02/02 04:55:09;;;;;;;8.55;5.70;;;-0.20;99.90;;;;;;5012803;28;20576;-75
2024/02/02 04:57:35;;;;;;;11.85;5.95;;;-0.30;99.90;;;;;;5013478;28;20064;-76
2024/02/02 05:00:01;;;;;;;14.13;5.80;;;-0.40;99.90;;;;;;5012623;28;20108;-75
2024/02/02 05:02:27;;;;;;;9.23;6.55;;;-0.40;99.90;;;;;;5012463;28;20022;-74
2024/02/02 05:04:53;;;;;;;13.25;6.03;;;-0.40;99.90;;;;;;5015214;28;20484;-74
2024/02/02 05:07:18;;;;;;;14.60;7.18;;;-0.50;99.90;;;;;;5013405;28;20056;-75
2024/02/02 05:09:44;;;;;;;11.80;6.15;;;-0.50;99.90;;;;;;5012569;28;20048;-75
2024/02/02 05:12:11;;;;;;;12.82;6.20;;;-0.60;99.90;;;;;;5013081;28;20021;-75
2024/02/02 05:14:36;;;;;;;9.27;5.82;;;-0.70;99.90;;;;;;5014196;28;20548;-74
2024/02/02 05:17:02;;;;;;;11.25;6.00;;;-0.70;99.90;;;;;;5014438;28;20026;-74
2024/02/02 05:19:28;;;;;;;10.73;6.10;;;-0.80;99.90;;;;;;5015175;28;20391;-74
2024/02/02 05:21:54;;;;;;;8.77;4.85;;;-0.80;99.90;;;;;;5013023;28;20033;-74
2024/02/02 05:24:19;;;;;;;10.32;5.40;;;-0.80;99.90;;;;;;5011994;28;20022;-74
2024/02/02 05:26:45;;;;;;;9.13;5.55;;;-0.90;99.90;;;;;;5012384;28;20093;-74
2024/02/02 05:29:11;;;;;;;11.50;6.47;;;-0.80;99.90;;;;;;5012160;28;20018;-75
2024/02/02 05:31:36;;;;;;;8.63;5.50;;;-0.90;99.90;;;;;;5012520;28;20599;-75
2024/02/02 05:34:02;;;;;;;9.15;5.72;;;-0.90;99.90;;;;;;5012531;28;20026;-75
2024/02/02 05:36:28;;;;;;;15.93;5.50;;;-0.80;99.90;;;;;;5012229;28;20161;-74
2024/02/02 05:38:53;;;;;;;12.95;7.60;;;-0.80;99.90;;;;;;5012289;28;20026;-75
2024/02/02 05:41:19;;;;;;;9.95;6.95;;;-0.80;99.90;;;;;;4994410;28;20029;-74
2024/02/02 05:43:45;;;;;;;9.80;5.80;;;-0.90;99.90;;;;;;4994585;28;20508;-75
2024/02/02 05:46:10;;;;;;;20.33;8.38;;;-0.90;99.90;;;;;;4994570;28;20173;-75
2024/02/02 05:48:36;;;;;;;17.30;7.22;;;-0.90;99.90;;;;;;4994246;28;20033;-75
2024/02/02 05:51:02;;;;;;;16.48;7.13;;;-0.90;99.90;;;;;;4994101;28;20049;-74
2024/02/02 05:53:27;;;;;;;13.90;7.85;;;-0.90;99.90;;;;;;5011904;28;20499;-73
2024/02/02 05:55:53;;;;;;;16.70;7.05;;;-1.00;99.90;;;;;;5011994;28;20025;-74
2024/02/02 05:58:19;;;;;;;11.40;7.22;;;-1.00;99.90;;;;;;4994411;28;20026;-76
2024/02/02 06:00:45;;;;;;;12.10;5.97;;;-1.10;99.90;;;;;;5011750;28;20508;-74
2024/02/02 06:03:10;;;;;;;10.55;6.32;;;-1.10;99.90;;;;;;4993769;28;20029;-74
2024/02/02 06:05:36;;;;;;;10.73;5.93;;;-1.10;99.90;;;;;;5011775;28;20440;-74
2024/02/02 06:08:02;;;;;;;8.88;5.82;;;-1.20;99.90;;;;;;4994768;28;20057;-74
2024/02/02 06:10:28;;;;;;;15.82;7.18;;;-1.20;99.90;;;;;;5012118;28;20068;-73
2024/02/02 06:12:54;;;;;;;13.82;7.25;;;-1.20;99.90;;;;;;5012340;28;20404;-74
2024/02/02 06:15:20;;;;;;;12.07;6.30;;;-1.20;99.90;;;;;;4995397;28;20113;-73
2024/02/02 06:17:45;;;;;;;41.70;11.82;;;-1.20;99.90;;;;;;5020634;28;20049;-73
2024/02/02 06:20:12;;;;;;;21.33;9.00;;;0.90;99.90;;;;;;5020567;28;20026;-73
2024/02/02 06:22:38;;;;;;;24.83;8.65;;;0.70;99.90;;;;;;5003857;28;20032;-73
2024/02/02 06:25:04;;;;;;;11.50;7.43;;;0.10;99.90;;;;;;5000692;28;20611;-76
2024/02/02 06:27:30;;;;;;;9.40;5.75;;;-0.20;99.90;;;;;;4994873;28;20034;-74
2024/02/02 06:29:58;;;;;;;11.95;6.50;;;-0.50;99.90;;;;;;4994181;28;20047;-74
2024/02/02 06:32:24;;;;;;;12.82;6.75;;;-0.70;99.90;;;;;;4994598;28;20452;-75
2024/02/02 06:34:55;;;;;;;13.13;7.18;;;-0.70;99.90;;;;;;4994838;28;20052;-75
2024/02/02 06:37:25;;;;;;;13.60;6.97;;;-0.70;99.90;;;;;;4998125;28;20113;-76
2024/02/02 06:39:52;;;;;;;19.70;7.90;;;-0.70;99.90;;;;;;5016103;28;20105;-74
2024/02/02 06:42:27;;;;;;;14.88;7.82;;;-0.70;99.90;;;;;;4998289;28;20032;-74
2024/02/02 06:44:54;;;;;;;18.45;8.35;;;-0.70;99.90;;;;;;4997929;28;20049;-74
2024/02/02 06:47:20;;;;;;;14.30;7.90;;;-0.70;99.90;;;;;;4998101;28;20030;-73
2024/02/02 06:49:46;;;;;;;12.32;7.05;;;-0.70;99.90;;;;;;4997939;28;20028;-74
2024/02/02 06:52:16;;;;;;;11.18;6.55;;;-0.70;99.90;;;;;;4997803;28;20088;-74
2024/02/02 06:54:43;;;;;;;11.48;6.40;;;-0.60;99.90;;;;;;5015498;28;20014;-74
2024/02/02 06:57:09;;;;;;;18.88;9.40;;;-0.60;99.90;;;;;;5015288;28;20026;-74
2024/02/02 06:59:35;;;;;;;15.65;7.35;;;-0.60;99.90;;;;;;4997595;28;20033;-72
2024/02/02 07:02:16;;;;;;;14.35;7.05;;;-0.50;99.90;;;;;;5015307;28;20026;-74
2024/02/02 07:04:41;;;;;;;14.35;6.40;;;-0.50;99.90;;;;;;5016551;28;20026;-74
2024/02/02 07:07:07;;;;;;;9.93;5.40;;;-0.50;99.90;;;;;;5015144;28;20026;-74
2024/02/02 07:09:33;;;;;;;11.73;6.25;;;-0.50;99.90;;;;;;4997113;28;20484;-73
2024/02/02 07:11:59;;;;;;;9.32;7.00;;;-0.40;99.90;;;;;;5014782;28;20477;-74
2024/02/02 07:14:43;;;;;;;10.55;5.45;;;-0.30;99.90;;;;;;5014898;28;20033;-74
2024/02/02 07:17:27;;;;;;;14.43;6.68;;;-0.30;99.90;;;;;;5014954;28;20029;-72
2024/02/02 07:19:53;;;;;;;13.98;6.43;;;-0.20;99.90;;;;;;5014798;28;20049;-74
2024/02/02 07:22:39;;;;;;;10.93;5.85;;;-0.20;99.90;;;;;;5014893;28;20028;-73
2024/02/02 07:25:14;;;;;;;15.05;6.00;;;-0.20;99.90;;;;;;5014924;28;20030;-73
2024/02/02 07:27:54;;;;;;;11.65;6.60;;;-0.20;99.90;;;;;;4997256;28;20511;-74
2024/02/02 07:30:48;;;;;;;12.88;6.97;;;-0.20;99.90;;;;;;4997538;28;20084;-74
2024/02/02 07:33:19;;;;;;;13.48;6.68;;;0.00;99.90;;;;;;5014462;28;20084;-73
2024/02/02 07:35:45;;;;;;;8.80;5.57;;;0.10;99.90;;;;;;5014559;28;20081;-74
2024/02/02 07:38:36;;;;;;;12.57;7.45;;;0.10;99.90;;;;;;5014474;28;20480;-74
2024/02/02 07:41:02;;;;;;;12.57;6.07;;;0.10;99.90;;;;;;5014367;28;20080;-74
2024/02/02 07:43:32;;;;;;;12.40;6.95;;;0.20;99.90;;;;;;5014396;28;20025;-74
2024/02/02 07:46:04;;;;;;;12.45;6.78;;;0.40;99.90;;;;;;5014387;28;20022;-74
2024/02/02 07:48:30;;;;;;;13.52;6.90;;;0.50;99.90;;;;;;5013841;28;20026;-74
2024/02/02 07:50:56;;;;;;;10.95;6.00;;;0.50;99.90;;;;;;5013890;28;20049;-74
2024/02/02 07:53:23;;;;;;;13.10;7.38;;;0.70;99.90;;;;;;5014102;28;20050;-74
2024/02/02 07:55:49;;;;;;;37.88;13.10;;;0.80;99.90;;;;;;5014224;28;20105;-74
2024/02/02 07:58:16;;;;;;;18.08;8.80;;;0.80;99.90;;;;;;5014087;28;20093;-74
2024/02/02 08:00:42;;;;;;;14.48;8.40;;;0.80;99.90;;;;;;4996153;28;20041;-74
2024/02/02 08:03:08;;;;;;;17.42;9.25;;;0.80;99.90;;;;;;4996291;28;20477;-73
2024/02/02 08:05:37;;;;;;;26.20;11.32;;;0.90;99.90;;;;;;4996381;28;20030;-72
2024/02/02 08:08:04;;;;;;;20.20;10.25;;;1.00;99.90;;;;;;5013904;28;20022;-77
2024/02/02 08:10:29;;;;;;;17.38;9.25;;;1.00;99.90;;;;;;5013606;28;20030;-74
2024/02/02 08:12:55;;;;;;;17.40;9.43;;;1.10;99.90;;;;;;5013564;28;20036;-74
2024/02/02 08:15:21;;;;;;;17.33;9.35;;;1.30;99.90;;;;;;5013530;28;20105;-73
2024/02/02 08:17:47;;;;;;;20.83;11.13;;;1.40;99.90;;;;;;5013618;28;20097;-73
2024/02/02 08:20:14;;;;;;;25.67;12.20;;;1.40;99.90;;;;;;5013443;28;20022;-74
2024/02/02 08:22:43;;;;;;;15.95;8.50;;;1.50;99.90;;;;;;4996151;28;20049;-73
2024/02/02 08:25:12;;;;;;;20.63;10.40;;;1.50;99.90;;;;;;5013582;28;20060;-74
2024/02/02 08:27:38;;;;;;;17.80;8.68;;;1.70;99.90;;;;;;5013491;28;20026;-73
2024/02/02 08:30:08;;;;;;;13.75;8.23;;;1.80;99.90;;;;;;5012997;28;20033;-73
2024/02/02 08:32:37;;;;;;;14.45;8.00;;;1.90;99.90;;;;;;5013116;28;20046;-73
2024/02/02 08:35:05;;;;;;;11.95;7.85;;;2.00;99.90;;;;;;5013707;28;20048;-74
2024/02/02 08:37:30;;;;;;;12.80;7.50;;;2.10;99.90;;;;;;5013822;28;20029;-74
2024/02/02 08:39:56;;;;;;;20.83;10.60;;;2.10;99.90;;;;;;4995887;28;20026;-74
2024/02/02 08:42:23;;;;;;;15.15;8.93;;;2.30;99.90;;;;;;4996719;28;20039;-73
2024/02/02 08:44:55;;;;;;;15.07;8.32;;;2.40;99.90;;;;;;5014046;28;20026;-74
2024/02/02 08:47:21;;;;;;;19.13;9.85;;;2.40;99.90;;;;;;4997074;28;20029;-73
2024/02/02 08:49:59;;;;;;;13.60;8.13;;;2.60;99.90;;;;;;5016908;28;20076;-74
2024/02/02 08:52:35;;;;;;;13.15;7.97;;;2.70;99.90;;;;;;5019212;28;20101;-73
2024/02/02 08:55:06;;;;;;;15.27;8.20;;;2.70;99.90;;;;;;5000373;28;20089;-73
2024/02/02 08:57:44;;;;;;;18.10;9.45;;;2.80;99.90;;;;;;4998927;28;20022;-74
2024/02/02 09:00:30;;;;;;;16.85;9.65;;;2.90;99.90;;;;;;5015945;28;20021;-74
2024/02/02 09:03:07;;;;;;;15.82;9.77;;;3.10;99.90;;;;;;5016806;28;20026;-74
2024/02/02 09:05:51;;;;;;;22.13;10.50;;;3.20;99.90;;;;;;5015782;28;20117;-73
2024/02/02 09:08:16;;;;;;;18.48;10.25;;;3.20;99.90;;;;;;5016412;28;20109;-72
2024/02/02 09:10:44;;;;;;;15.25;9.45;;;3.30;99.90;;;;;;5016346;28;20061;-73
2024/02/02 09:13:36;;;;;;;16.50;10.07;;;3.50;99.90;;;;;;5020677;28;20025;-73
2024/02/02 09:16:03;;;;;;;17.95;9.75;;;3.60;99.90;;;;;;5016957;28;20034;-72
2024/02/02 09:18:40;;;;;;;20.33;10.80;;;3.80;99.90;;;;;;5016277;28;20029;-73
2024/02/02 09:21:08;;;;;;;23.60;11.98;;;4.00;99.90;;;;;;4998457;28;20448;-73
2024/02/02 09:23:35;;;;;;;21.67;13.00;;;4.10;99.90;;;;;;4999124;28;20034;-72
2024/02/02 09:26:11;;;;;;;22.88;12.82;;;4.20;99.90;;;;;;5012372;28;20037;-72
2024/02/02 09:28:43;;;;;;;;;;;4.40;99.90;;;;;;5013205;28;20026;-73
2024/02/02 09:31:34;;;;;;;24.73;14.88;;;4.50;99.90;;;;;;5012062;28;19955;-75
2024/02/02 09:34:04;;;;;;;26.55;14.80;;;4.70;99.90;;;;;;4994796;28;20029;-74
2024/02/02 09:36:29;;;;;;;24.38;15.85;;;4.90;99.90;;;;;;5012335;28;20022;-74
2024/02/02 09:39:04;;;;;;;25.77;15.95;;;4.90;99.90;;;;;;4994907;28;20369;-75
2024/02/02 09:41:54;;;;;;;28.52;14.30;;;5.10;99.90;;;;;;5012371;28;20022;-75
2024/02/02 09:44:45;;;;;;;24.42;13.82;;;5.20;99.90;;;;;;5012282;28;20044;-75
2024/02/02 09:47:33;;;;;;;27.90;13.48;;;5.30;99.90;;;;;;5012482;28;20129;-75
2024/02/02 09:49:59;;;;;;;34.85;18.15;;;5.40;99.90;;;;;;4994409;28;20101;-75
2024/02/02 09:53:01;;;;;;;30.65;16.58;;;5.40;99.90;;;;;;5012245;28;20120;-75
2024/02/02 09:55:31;;;;;;;23.42;14.40;;;5.50;99.90;;;;;;4994717;28;20026;-75
2024/02/02 09:58:25;;;;;;;32.65;15.25;;;5.60;99.90;;;;;;5012321;28;20120;-75
2024/02/02 10:00:51;;;;;;;82.40;38.45;;;5.70;99.90;;;;;;5012160;28;20029;-75
2024/02/02 10:03:49;;;;;;;61.97;39.70;;;5.80;99.90;;;;;;5012376;28;20034;-75
2024/02/02 10:06:18;;;;;;;30.55;18.77;;;6.00;99.90;;;;;;5012253;28;20113;-74
2024/02/02 10:08:52;;;;;;;31.63;17.27;;;6.10;99.90;;;;;;5012089;28;20022;-75
2024/02/02 10:11:26;;;;;;;28.15;16.42;;;6.20;99.90;;;;;;5014886;28;20398;-77
2024/02/02 10:13:52;;;;;;;39.65;22.98;;;6.50;99.90;;;;;;5016231;28;20038;-77
2024/02/02 10:16:56;;;;;;;29.27;17.67;;;6.70;99.90;;;;;;5015950;28;20468;-77
2024/02/02 10:20:00;;;;;;;27.60;15.73;;;6.80;99.90;;;;;;4998162;28;20037;-77
2024/02/02 10:22:48;;;;;;;29.52;14.68;;;6.90;99.90;;;;;;4998217;28;20062;-77
2024/02/02 10:25:26;;;;;;;26.40;16.55;;;6.90;99.90;;;;;;4998288;28;20480;-76
2024/02/02 10:28:16;;;;;;;25.55;14.57;;;6.80;99.90;;;;;;5015816;28;20220;-77
2024/02/02 10:31:00;;;;;;;24.55;14.68;;;6.80;99.90;;;;;;4998060;28;20038;-78
2024/02/02 10:33:57;;;;;;;24.10;13.15;;;6.70;99.90;;;;;;4998134;28;20465;-76
2024/02/02 10:36:26;;;;;;;23.95;14.15;;;6.80;99.90;;;;;;5015684;28;20025;-76
2024/02/02 10:39:27;;;;;;;27.13;14.88;;;6.90;99.90;;;;;;4997975;28;20121;-77
2024/02/02 10:42:04;;;;;;;23.70;14.20;;;7.00;99.90;;;;;;4968787;28;20088;-76
2024/02/02 10:44:56;;;;;;;21.83;12.70;;;7.10;99.90;;;;;;5015639;28;20022;-78
2024/02/02 10:47:34;;;;;;;22.35;13.38;;;6.90;99.90;;;;;;5016255;28;20555;-78
2024/02/02 10:50:14;;;;;;;21.80;13.80;;;7.00;99.90;;;;;;4997892;28;20033;-76
2024/02/02 10:52:42;;;;;;;21.45;13.63;;;7.00;99.90;;;;;;4997678;28;20065;-76
2024/02/02 10:55:32;;;;;;;24.92;13.95;;;7.00;99.90;;;;;;4997626;28;20053;-76
2024/02/02 10:58:15;;;;;;;24.23;14.35;;;7.20;99.90;;;;;;5016044;28;20094;-78
2024/02/02 11:00:54;;;;;;;25.10;15.48;;;7.30;99.90;;;;;;4997580;28;20022;-77
2024/02/02 11:03:37;;;;;;;24.65;14.10;;;7.40;99.90;;;;;;5015452;28;20127;-78
2024/02/02 11:06:30;;;;;;;27.40;13.35;;;7.50;99.90;;;;;;5015433;28;20028;-77
2024/02/02 11:09:16;;;;;;;21.25;12.20;;;7.50;99.90;;;;;;5015527;28;20491;-77
2024/02/02 11:11:47;;;;;;;23.73;13.17;;;7.60;99.90;;;;;;5015138;28;20025;-77
2024/02/02 11:14:28;;;;;;;21.77;12.07;;;7.80;99.90;;;;;;4997813;28;20034;-77
2024/02/02 11:17:04;;;;;;;24.55;12.77;;;7.80;99.90;;;;;;4997560;28;20025;-78
2024/02/02 11:19:58;;;;;;;20.23;12.63;;;7.90;99.90;;;;;;5014728;28;20077;-78
2024/02/02 11:22:46;;;;;;;23.05;13.55;;;7.90;99.90;;;;;;5014096;28;20492;-76
2024/02/02 11:25:36;;;;;;;22.23;13.82;;;7.90;99.90;;;;;;5014986;28;20104;-76
2024/02/02 11:28:16;;;;;;;21.80;12.65;;;8.10;99.90;;;;;;5015074;28;20033;-76
2024/02/02 11:30:56;;;;;;;22.13;12.65;;;8.20;99.90;;;;;;5014319;28;20045;-77
2024/02/02 11:34:02;;;;;;;22.38;13.85;;;8.20;99.90;;;;;;5014604;28;20424;-76
2024/02/02 11:36:50;;;;;;;20.45;12.93;;;8.30;99.90;;;;;;4934615;29;20083;-76
2024/02/02 11:39:34;;;;;;;24.55;14.10;;;8.10;99.90;;;;;;4934326;29;20100;-76
2024/02/02 11:42:03;;;;;;;22.50;12.75;;;8.10;99.90;;;;;;4994502;28;20088;-75
2024/02/02 11:44:30;;;;;;;22.85;12.68;;;8.20;99.90;;;;;;5014375;28;20033;-77
2024/02/02 11:46:57;;;;;;;20.50;11.88;;;8.40;99.90;;;;;;5014175;28;20025;-75
2024/02/02 11:49:28;;;;;;;18.98;10.52;;;8.40;99.90;;;;;;5014313;28;20022;-76
2024/02/02 11:52:04;;;;;;;17.70;11.93;;;8.30;99.90;;;;;;4996887;28;20017;-76
2024/02/02 11:54:41;;;;;;;;;;;8.20;99.90;;;;;;5014693;28;20017;-75
2024/02/02 11:57:15;;;;;;;19.17;11.07;;;8.30;99.90;;;;;;4996693;28;19906;-75
2024/02/02 11:59:44;;;;;;;25.10;13.57;;;8.30;99.90;;;;;;4996415;28;20029;-76
2024/02/02 12:02:40;;;;;;;21.38;11.65;;;8.30;99.90;;;;;;5013891;28;20022;-75
2024/02/02 12:05:15;;;;;;;24.80;14.75;;;8.30;99.90;;;;;;4960441;28;20400;-75
2024/02/02 12:08:07;;;;;;;26.15;14.73;;;8.30;99.90;;;;;;4996296;28;20037;-75
2024/02/02 12:10:40;;;;;;;18.48;10.77;;;8.30;99.90;;;;;;5013557;28;20373;-75
2024/02/02 12:13:11;;;;;;;25.50;14.75;;;8.40;99.90;;;;;;4995898;28;20030;-75
2024/02/02 12:15:36;;;;;;;27.17;15.98;;;8.50;99.90;;;;;;5013732;28;20028;-75
2024/02/02 12:18:02;;;;;;;19.67;12.55;;;8.40;99.90;;;;;;5013535;28;20029;-76
2024/02/02 12:20:29;;;;;;;26.33;14.88;;;8.20;99.90;;;;;;5013379;28;20511;-75
2024/02/02 12:22:54;;;;;;;23.85;15.07;;;8.10;99.90;;;;;;4996033;28;20040;-75
2024/02/02 12:25:20;;;;;;;24.00;14.57;;;8.20;99.90;;;;;;5013743;28;20022;-75
2024/02/02 12:27:46;;;;;;;25.75;15.77;;;8.20;99.90;;;;;;5014382;28;20029;-73
2024/02/02 12:30:14;;;;;;;29.02;15.20;;;8.30;99.90;;;;;;5013334;28;20041;-74
2024/02/02 12:32:50;;;;;;;23.73;13.60;;;8.40;99.90;;;;;;4996385;28;20117;-74
2024/02/02 12:35:16;;;;;;;22.67;11.43;;;8.50;99.90;;;;;;4995931;28;20080;-72
2024/02/02 12:37:46;;;;;;;18.77;12.02;;;8.50;99.90;;;;;;5013389;28;20101;-74
2024/02/02 12:40:12;;;;;;;23.83;12.65;;;8.50;99.90;;;;;;4995633;28;20105;-75
2024/02/02 12:42:38;;;;;;;21.83;11.80;;;8.60;99.90;;;;;;5013415;28;20034;-73
2024/02/02 12:45:04;;;;;;;22.83;13.30;;;8.60;99.90;;;;;;5013503;28;20599;-71
2024/02/02 12:47:30;;;;;;;21.08;11.90;;;8.50;99.90;;;;;;5013232;28;20121;-72
2024/02/02 12:49:55;;;;;;;20.60;13.18;;;8.50;99.90;;;;;;5012832;28;20029;-74
2024/02/02 12:52:21;;;;;;;21.02;13.02;;;8.40;99.90;;;;;;5013188;28;20022;-73
2024/02/02 12:54:47;;;;;;;22.88;14.15;;;8.30;99.90;;;;;;5013300;28;20088;-73
2024/02/02 12:57:13;;;;;;;27.77;16.45;;;8.20;99.90;;;;;;5013081;28;20029;-75